sensor_id;sensor_type;location;lat;lon;timestamp;pressure;altitude;pressure_sealevel;temperature;humidity
36538;BME280;22545;48.892;9.138;2022-07-10T00:00:10;98733.31;;;17.79;100.00
36538;BME280;22545;48.892;9.138;2022-07-10T00:02:36;98731.88;;;17.73;100.00
36538;BME280;22545;48.892;9.138;2022-07-10T00:05:01;98722.34;;;17.74;100.00
36538;BME280;22545;48.892;9.138;2022-07-10T00:07:26;98724.25;;;17.86;100.00
36538;BME280;22545;48.892;9.138;2022-07-10T00:09:52;98714.03;;;17.67;100.00
36538;BME280;22545;48.892;9.138;2022-07-10T00:12:17;98718.53;;;17.79;100.00
36538;BME280;22545;48.892;9.138;2022-07-10T00:14:42;98722.50;;;17.71;100.00
36538;BME280;22545;48.892;9.138;2022-07-10T00:17:07;98705.13;;;17.71;100.00
36538;BME280;22545;48.892;9.138;2022-07-10T00:19:32;98714.78;;;17.69;100.00
36538;BME280;22545;48.892;9.138;2022-07-10T00:21:58;98714.28;;;17.62;100.00
36538;BME280;22545;48.892;9.138;2022-07-10T00:24:23;98719.00;;;17.56;100.00
36538;BME280;22545;48.892;9.138;2022-07-10T00:26:48;98709.16;;;17.61;100.00
36538;BME280;22545;48.892;9.138;2022-07-10T00:29:14;98709.25;;;17.59;100.00
36538;BME280;22545;48.892;9.138;2022-07-10T00:31:39;98716.22;;;17.59;100.00
36538;BME280;22545;48.892;9.138;2022-07-10T00:34:04;98714.53;;;17.58;100.00
36538;BME280;22545;48.892;9.138;2022-07-10T00:36:31;98716.13;;;17.44;100.00
36538;BME280;22545;48.892;9.138;2022-07-10T00:38:56;98715.13;;;17.47;100.00
36538;BME280;22545;48.892;9.138;2022-07-10T00:41:21;98717.56;;;17.50;100.00
36538;BME280;22545;48.892;9.138;2022-07-10T00:43:53;98721.69;;;17.54;100.00
36538;BME280;22545;48.892;9.138;2022-07-10T00:46:19;98722.34;;;17.42;100.00
36538;BME280;22545;48.892;9.138;2022-07-10T00:48:48;98714.13;;;17.33;100.00
36538;BME280;22545;48.892;9.138;2022-07-10T00:51:13;98708.50;;;17.41;100.00
36538;BME280;22545;48.892;9.138;2022-07-10T00:53:39;98710.44;;;17.22;100.00
36538;BME280;22545;48.892;9.138;2022-07-10T00:56:05;98714.97;;;17.18;100.00
36538;BME280;22545;48.892;9.138;2022-07-10T00:58:30;98710.84;;;17.14;100.00
36538;BME280;22545;48.892;9.138;2022-07-10T01:00:55;98711.75;;;16.97;100.00
36538;BME280;22545;48.892;9.138;2022-07-10T01:03:21;98707.34;;;17.15;100.00
36538;BME280;22545;48.892;9.138;2022-07-10T01:05:46;98710.50;;;17.20;100.00
36538;BME280;22545;48.892;9.138;2022-07-10T01:08:11;98707.41;;;17.13;100.00
36538;BME280;22545;48.892;9.138;2022-07-10T01:10:37;98698.84;;;17.11;100.00
36538;BME280;22545;48.892;9.138;2022-07-10T01:13:02;98705.88;;;17.09;100.00
36538;BME280;22545;48.892;9.138;2022-07-10T01:15:28;98705.06;;;17.09;100.00
36538;BME280;22545;48.892;9.138;2022-07-10T01:17:53;98706.75;;;17.26;100.00
36538;BME280;22545;48.892;9.138;2022-07-10T01:20:20;98708.81;;;17.19;100.00
36538;BME280;22545;48.892;9.138;2022-07-10T01:22:45;98708.25;;;17.14;100.00
36538;BME280;22545;48.892;9.138;2022-07-10T01:25:11;98697.50;;;17.20;100.00
36538;BME280;22545;48.892;9.138;2022-07-10T01:27:36;98699.66;;;16.96;100.00
36538;BME280;22545;48.892;9.138;2022-07-10T01:30:01;98695.75;;;17.05;100.00
36538;BME280;22545;48.892;9.138;2022-07-10T01:32:27;98703.22;;;17.11;100.00
36538;BME280;22545;48.892;9.138;2022-07-10T01:35:01;98700.28;;;16.84;100.00
36538;BME280;22545;48.892;9.138;2022-07-10T01:37:26;98690.44;;;16.90;100.00
36538;BME280;22545;48.892;9.138;2022-07-10T01:39:51;98693.09;;;16.89;100.00
36538;BME280;22545;48.892;9.138;2022-07-10T01:42:16;98698.06;;;16.93;100.00
36538;BME280;22545;48.892;9.138;2022-07-10T01:44:41;98702.19;;;16.97;100.00
36538;BME280;22545;48.892;9.138;2022-07-10T01:47:07;98694.56;;;16.77;100.00
36538;BME280;22545;48.892;9.138;2022-07-10T01:49:34;98694.41;;;16.80;100.00
36538;BME280;22545;48.892;9.138;2022-07-10T01:51:59;98701.28;;;16.81;100.00
36538;BME280;22545;48.892;9.138;2022-07-10T01:54:24;98699.59;;;16.80;100.00
36538;BME280;22545;48.892;9.138;2022-07-10T01:56:50;98698.59;;;16.67;100.00
36538;BME280;22545;48.892;9.138;2022-07-10T01:59:15;98706.22;;;16.52;100.00
36538;BME280;22545;48.892;9.138;2022-07-10T02:01:40;98708.50;;;16.58;100.00
36538;BME280;22545;48.892;9.138;2022-07-10T02:04:05;98700.44;;;16.47;100.00
36538;BME280;22545;48.892;9.138;2022-07-10T02:06:49;98707.44;;;16.45;100.00
36538;BME280;22545;48.892;9.138;2022-07-10T02:09:14;98708.38;;;16.44;100.00
36538;BME280;22545;48.892;9.138;2022-07-10T02:11:40;98694.72;;;16.40;100.00
36538;BME280;22545;48.892;9.138;2022-07-10T02:14:05;98705.72;;;16.45;100.00
36538;BME280;22545;48.892;9.138;2022-07-10T02:16:31;98701.72;;;16.56;100.00
36538;BME280;22545;48.892;9.138;2022-07-10T02:18:56;98706.53;;;16.63;100.00
36538;BME280;22545;48.892;9.138;2022-07-10T02:21:21;98710.72;;;16.66;100.00
36538;BME280;22545;48.892;9.138;2022-07-10T02:23:46;98710.13;;;16.61;100.00
36538;BME280;22545;48.892;9.138;2022-07-10T02:26:12;98707.69;;;16.40;100.00
36538;BME280;22545;48.892;9.138;2022-07-10T02:28:37;98703.47;;;16.55;100.00
36538;BME280;22545;48.892;9.138;2022-07-10T02:31:02;98713.13;;;16.53;100.00
36538;BME280;22545;48.892;9.138;2022-07-10T02:33:27;98719.38;;;16.49;100.00
36538;BME280;22545;48.892;9.138;2022-07-10T02:35:53;98727.16;;;16.49;100.00
36538;BME280;22545;48.892;9.138;2022-07-10T02:38:18;98724.88;;;16.25;100.00
36538;BME280;22545;48.892;9.138;2022-07-10T02:40:43;98722.66;;;16.35;100.00
36538;BME280;22545;48.892;9.138;2022-07-10T02:43:08;98716.09;;;16.28;100.00
36538;BME280;22545;48.892;9.138;2022-07-10T02:45:34;98713.50;;;16.28;100.00
36538;BME280;22545;48.892;9.138;2022-07-10T02:47:59;98720.22;;;16.32;100.00
36538;BME280;22545;48.892;9.138;2022-07-10T02:50:24;98718.44;;;16.15;100.00
36538;BME280;22545;48.892;9.138;2022-07-10T02:52:49;98724.34;;;16.19;100.00
36538;BME280;22545;48.892;9.138;2022-07-10T02:55:15;98720.13;;;16.16;100.00
36538;BME280;22545;48.892;9.138;2022-07-10T02:57:40;98722.34;;;16.24;100.00
36538;BME280;22545;48.892;9.138;2022-07-10T03:00:05;98720.78;;;16.21;100.00
36538;BME280;22545;48.892;9.138;2022-07-10T03:02:31;98732.44;;;16.30;100.00
36538;BME280;22545;48.892;9.138;2022-07-10T03:04:56;98731.75;;;16.26;100.00
36538;BME280;22545;48.892;9.138;2022-07-10T03:07:21;98725.88;;;16.23;100.00
36538;BME280;22545;48.892;9.138;2022-07-10T03:09:46;98723.56;;;16.17;100.00
36538;BME280;22545;48.892;9.138;2022-07-10T03:12:12;98731.19;;;16.02;100.00
36538;BME280;22545;48.892;9.138;2022-07-10T03:14:37;98725.84;;;16.05;100.00
36538;BME280;22545;48.892;9.138;2022-07-10T03:17:05;98725.53;;;15.94;100.00
36538;BME280;22545;48.892;9.138;2022-07-10T03:19:30;98720.03;;;16.00;100.00
36538;BME280;22545;48.892;9.138;2022-07-10T03:21:55;98726.09;;;16.01;100.00
36538;BME280;22545;48.892;9.138;2022-07-10T03:24:20;98727.91;;;15.81;100.00
36538;BME280;22545;48.892;9.138;2022-07-10T03:26:46;98726.09;;;16.01;100.00
36538;BME280;22545;48.892;9.138;2022-07-10T03:29:11;98724.84;;;15.90;100.00
36538;BME280;22545;48.892;9.138;2022-07-10T03:31:36;98728.91;;;15.96;100.00
36538;BME280;22545;48.892;9.138;2022-07-10T03:34:01;98728.06;;;15.96;100.00
36538;BME280;22545;48.892;9.138;2022-07-10T03:36:27;98737.81;;;15.90;100.00
36538;BME280;22545;48.892;9.138;2022-07-10T03:38:52;98729.22;;;15.71;100.00
36538;BME280;22545;48.892;9.138;2022-07-10T03:41:17;98731.44;;;15.98;100.00
36538;BME280;22545;48.892;9.138;2022-07-10T03:43:42;98730.41;;;15.83;100.00
36538;BME280;22545;48.892;9.138;2022-07-10T03:46:08;98730.47;;;15.81;100.00
36538;BME280;22545;48.892;9.138;2022-07-10T03:48:33;98734.69;;;15.84;100.00
36538;BME280;22545;48.892;9.138;2022-07-10T03:50:58;98726.91;;;16.01;100.00
36538;BME280;22545;48.892;9.138;2022-07-10T03:53:24;98729.88;;;15.93;100.00
36538;BME280;22545;48.892;9.138;2022-07-10T03:55:49;98737.22;;;16.03;100.00
36538;BME280;22545;48.892;9.138;2022-07-10T03:58:14;98736.63;;;15.98;100.00
36538;BME280;22545;48.892;9.138;2022-07-10T04:00:39;98736.63;;;16.15;100.00
36538;BME280;22545;48.892;9.138;2022-07-10T04:03:07;98737.78;;;16.09;100.00
36538;BME280;22545;48.892;9.138;2022-07-10T04:05:33;98742.25;;;16.06;100.00
36538;BME280;22545;48.892;9.138;2022-07-10T04:07:59;98735.50;;;16.03;100.00
36538;BME280;22545;48.892;9.138;2022-07-10T04:10:25;98737.53;;;15.97;100.00
36538;BME280;22545;48.892;9.138;2022-07-10T04:12:51;98735.34;;;16.06;100.00
36538;BME280;22545;48.892;9.138;2022-07-10T04:15:16;98734.63;;;16.03;100.00
36538;BME280;22545;48.892;9.138;2022-07-10T04:17:42;98734.94;;;15.97;100.00
36538;BME280;22545;48.892;9.138;2022-07-10T04:20:07;98741.22;;;16.10;100.00
36538;BME280;22545;48.892;9.138;2022-07-10T04:22:33;98736.00;;;16.10;100.00
36538;BME280;22545;48.892;9.138;2022-07-10T04:24:58;98736.63;;;15.98;100.00
36538;BME280;22545;48.892;9.138;2022-07-10T04:27:23;98741.50;;;16.04;100.00
36538;BME280;22545;48.892;9.138;2022-07-10T04:29:49;98744.63;;;16.10;100.00
36538;BME280;22545;48.892;9.138;2022-07-10T04:32:14;98741.97;;;16.12;100.00
36538;BME280;22545;48.892;9.138;2022-07-10T04:34:40;98740.22;;;16.13;100.00
36538;BME280;22545;48.892;9.138;2022-07-10T04:37:05;98735.41;;;16.05;100.00
36538;BME280;22545;48.892;9.138;2022-07-10T04:39:32;98738.88;;;15.86;100.00
36538;BME280;22545;48.892;9.138;2022-07-10T04:41:57;98738.84;;;16.05;100.00
36538;BME280;22545;48.892;9.138;2022-07-10T04:44:22;98737.78;;;16.09;100.00
36538;BME280;22545;48.892;9.138;2022-07-10T04:46:48;98739.44;;;16.10;100.00
36538;BME280;22545;48.892;9.138;2022-07-10T04:49:13;98746.03;;;16.35;100.00
36538;BME280;22545;48.892;9.138;2022-07-10T04:51:38;98746.25;;;16.31;100.00
36538;BME280;22545;48.892;9.138;2022-07-10T04:54:04;98747.69;;;16.36;100.00
36538;BME280;22545;48.892;9.138;2022-07-10T04:56:29;98746.78;;;16.20;100.00
36538;BME280;22545;48.892;9.138;2022-07-10T04:58:54;98745.00;;;16.38;100.00
36538;BME280;22545;48.892;9.138;2022-07-10T05:01:19;98746.09;;;16.34;100.00
36538;BME280;22545;48.892;9.138;2022-07-10T05:03:45;98741.22;;;16.45;100.00
36538;BME280;22545;48.892;9.138;2022-07-10T05:06:10;98748.84;;;16.31;100.00
36538;BME280;22545;48.892;9.138;2022-07-10T05:08:35;98752.38;;;16.47;100.00
36538;BME280;22545;48.892;9.138;2022-07-10T05:11:01;98756.03;;;16.43;100.00
36538;BME280;22545;48.892;9.138;2022-07-10T05:13:26;98757.34;;;16.52;100.00
36538;BME280;22545;48.892;9.138;2022-07-10T05:15:51;98752.06;;;16.53;100.00
36538;BME280;22545;48.892;9.138;2022-07-10T05:18:16;98746.03;;;16.35;100.00
36538;BME280;22545;48.892;9.138;2022-07-10T05:20:42;98752.22;;;16.33;100.00
36538;BME280;22545;48.892;9.138;2022-07-10T05:23:08;98755.50;;;16.19;100.00
36538;BME280;22545;48.892;9.138;2022-07-10T05:25:34;98746.91;;;16.17;100.00
36538;BME280;22545;48.892;9.138;2022-07-10T05:27:59;98754.78;;;16.15;100.00
36538;BME280;22545;48.892;9.138;2022-07-10T05:30:24;98747.69;;;16.01;100.00
36538;BME280;22545;48.892;9.138;2022-07-10T05:32:49;98753.19;;;16.13;100.00
36538;BME280;22545;48.892;9.138;2022-07-10T05:35:15;98756.25;;;16.38;100.00
36538;BME280;22545;48.892;9.138;2022-07-10T05:37:40;98761.00;;;16.48;100.00
36538;BME280;22545;48.892;9.138;2022-07-10T05:40:06;98766.25;;;16.28;100.00
36538;BME280;22545;48.892;9.138;2022-07-10T05:42:31;98759.69;;;16.21;100.00
36538;BME280;22545;48.892;9.138;2022-07-10T05:44:57;98771.59;;;16.60;100.00
36538;BME280;22545;48.892;9.138;2022-07-10T05:47:22;98763.50;;;16.49;100.00
36538;BME280;22545;48.892;9.138;2022-07-10T05:49:47;98773.56;;;16.38;100.00
36538;BME280;22545;48.892;9.138;2022-07-10T05:52:12;98772.59;;;16.40;100.00
36538;BME280;22545;48.892;9.138;2022-07-10T05:54:38;98779.31;;;16.27;100.00
36538;BME280;22545;48.892;9.138;2022-07-10T05:57:03;98784.19;;;16.16;100.00
36538;BME280;22545;48.892;9.138;2022-07-10T05:59:29;98787.78;;;16.31;100.00
36538;BME280;22545;48.892;9.138;2022-07-10T06:01:57;98787.47;;;16.54;100.00
36538;BME280;22545;48.892;9.138;2022-07-10T06:04:23;98780.78;;;16.50;100.00
36538;BME280;22545;48.892;9.138;2022-07-10T06:06:48;98788.28;;;16.20;100.00
36538;BME280;22545;48.892;9.138;2022-07-10T06:09:13;98791.13;;;16.15;100.00
36538;BME280;22545;48.892;9.138;2022-07-10T06:11:38;98787.84;;;16.46;100.00
36538;BME280;22545;48.892;9.138;2022-07-10T06:14:06;98790.84;;;16.56;100.00
36538;BME280;22545;48.892;9.138;2022-07-10T06:16:32;98789.47;;;16.67;100.00
36538;BME280;22545;48.892;9.138;2022-07-10T06:18:57;98787.56;;;16.53;100.00
36538;BME280;22545;48.892;9.138;2022-07-10T06:21:22;98733.59;;;16.75;100.00
36538;BME280;22545;48.892;9.138;2022-07-10T06:23:48;98797.00;;;17.72;100.00
36538;BME280;22545;48.892;9.138;2022-07-10T06:26:13;98794.50;;;17.86;100.00
36538;BME280;22545;48.892;9.138;2022-07-10T06:28:38;98789.63;;;17.80;100.00
36538;BME280;22545;48.892;9.138;2022-07-10T06:31:04;98796.66;;;17.78;100.00
36538;BME280;22545;48.892;9.138;2022-07-10T06:33:30;98799.88;;;17.51;100.00
36538;BME280;22545;48.892;9.138;2022-07-10T06:35:57;98796.50;;;17.33;100.00
36538;BME280;22545;48.892;9.138;2022-07-10T06:38:22;98799.63;;;17.06;100.00
36538;BME280;22545;48.892;9.138;2022-07-10T06:40:47;98806.69;;;16.87;100.00
36538;BME280;22545;48.892;9.138;2022-07-10T06:43:12;98798.09;;;16.67;100.00
36538;BME280;22545;48.892;9.138;2022-07-10T06:45:38;98805.97;;;16.31;100.00
36538;BME280;22545;48.892;9.138;2022-07-10T06:48:04;98800.66;;;16.15;100.00
36538;BME280;22545;48.892;9.138;2022-07-10T06:50:29;98808.84;;;16.42;100.00
36538;BME280;22545;48.892;9.138;2022-07-10T06:52:55;98808.84;;;16.42;100.00
36538;BME280;22545;48.892;9.138;2022-07-10T06:55:21;98814.44;;;16.34;100.00
36538;BME280;22545;48.892;9.138;2022-07-10T06:57:46;98816.03;;;16.37;100.00
36538;BME280;22545;48.892;9.138;2022-07-10T07:00:12;98805.81;;;16.34;100.00
36538;BME280;22545;48.892;9.138;2022-07-10T07:02:37;98801.97;;;16.41;100.00
36538;BME280;22545;48.892;9.138;2022-07-10T07:05:03;98810.09;;;16.52;100.00
36538;BME280;22545;48.892;9.138;2022-07-10T07:07:28;98818.19;;;16.63;100.00
36538;BME280;22545;48.892;9.138;2022-07-10T07:09:53;98812.66;;;16.35;100.00
36538;BME280;22545;48.892;9.138;2022-07-10T07:12:19;98809.75;;;16.41;100.00
36538;BME280;22545;48.892;9.138;2022-07-10T07:14:44;98812.25;;;16.44;100.00
36538;BME280;22545;48.892;9.138;2022-07-10T07:17:09;98817.72;;;16.55;100.00
36538;BME280;22545;48.892;9.138;2022-07-10T07:19:37;98813.97;;;16.43;100.00
36538;BME280;22545;48.892;9.138;2022-07-10T07:22:21;98814.97;;;16.58;100.00
36538;BME280;22545;48.892;9.138;2022-07-10T07:25:05;98828.00;;;16.39;100.00
36538;BME280;22545;48.892;9.138;2022-07-10T07:27:32;98823.81;;;16.54;100.00
36538;BME280;22545;48.892;9.138;2022-07-10T07:30:00;98833.69;;;16.48;100.00
36538;BME280;22545;48.892;9.138;2022-07-10T07:32:25;98833.47;;;16.52;100.00
36538;BME280;22545;48.892;9.138;2022-07-10T07:34:51;98830.72;;;16.73;100.00
36538;BME280;22545;48.892;9.138;2022-07-10T07:37:16;98830.72;;;16.73;100.00
36538;BME280;22545;48.892;9.138;2022-07-10T07:39:41;98833.47;;;16.70;100.00
36538;BME280;22545;48.892;9.138;2022-07-10T07:42:06;98839.19;;;16.76;100.00
36538;BME280;22545;48.892;9.138;2022-07-10T07:44:32;98826.00;;;16.98;100.00
36538;BME280;22545;48.892;9.138;2022-07-10T07:46:57;98831.19;;;17.97;100.00
36538;BME280;22545;48.892;9.138;2022-07-10T07:49:22;98829.72;;;18.39;100.00
36538;BME280;22545;48.892;9.138;2022-07-10T07:51:47;98829.03;;;18.52;100.00
36538;BME280;22545;48.892;9.138;2022-07-10T07:54:13;98837.41;;;18.11;100.00
36538;BME280;22545;48.892;9.138;2022-07-10T07:56:39;98829.47;;;17.48;100.00
36538;BME280;22545;48.892;9.138;2022-07-10T07:59:04;98826.13;;;17.46;100.00
36538;BME280;22545;48.892;9.138;2022-07-10T08:01:29;98824.44;;;17.12;100.00
36538;BME280;22545;48.892;9.138;2022-07-10T08:03:54;98826.06;;;16.79;100.00
36538;BME280;22545;48.892;9.138;2022-07-10T08:06:20;98821.59;;;16.81;100.00
36538;BME280;22545;48.892;9.138;2022-07-10T08:08:45;98813.84;;;16.99;100.00
36538;BME280;22545;48.892;9.138;2022-07-10T08:11:11;98822.59;;;17.47;100.00
36538;BME280;22545;48.892;9.138;2022-07-10T08:13:36;98818.28;;;17.96;100.00
36538;BME280;22545;48.892;9.138;2022-07-10T08:16:01;98819.31;;;19.29;100.00
36538;BME280;22545;48.892;9.138;2022-07-10T08:18:27;98817.97;;;19.51;100.00
36538;BME280;22545;48.892;9.138;2022-07-10T08:20:52;98810.00;;;19.39;97.11
36538;BME280;22545;48.892;9.138;2022-07-10T08:23:17;98807.94;;;19.44;94.52
36538;BME280;22545;48.892;9.138;2022-07-10T08:25:42;98803.84;;;18.97;100.00
36538;BME280;22545;48.892;9.138;2022-07-10T08:28:08;98804.88;;;18.64;100.00
36538;BME280;22545;48.892;9.138;2022-07-10T08:30:35;98800.97;;;18.41;100.00
36538;BME280;22545;48.892;9.138;2022-07-10T08:33:00;98807.22;;;18.38;100.00
36538;BME280;22545;48.892;9.138;2022-07-10T08:35:25;98789.81;;;20.12;82.06
36538;BME280;22545;48.892;9.138;2022-07-10T08:37:50;98797.00;;;20.48;78.22
36538;BME280;22545;48.892;9.138;2022-07-10T08:40:16;98796.34;;;20.98;66.15
36538;BME280;22545;48.892;9.138;2022-07-10T08:42:42;98795.25;;;20.49;76.20
36538;BME280;22545;48.892;9.138;2022-07-10T08:45:09;98797.88;;;20.22;79.13
36538;BME280;22545;48.892;9.138;2022-07-10T08:47:35;98788.97;;;19.84;80.18
36538;BME280;22545;48.892;9.138;2022-07-10T08:50:01;98791.63;;;21.03;72.19
36538;BME280;22545;48.892;9.138;2022-07-10T08:52:28;98800.56;;;21.63;65.46
36538;BME280;22545;48.892;9.138;2022-07-10T08:54:56;98792.78;;;21.50;63.46
36538;BME280;22545;48.892;9.138;2022-07-10T08:57:25;98797.75;;;20.50;64.69
36538;BME280;22545;48.892;9.138;2022-07-10T08:59:51;98801.44;;;20.21;69.88
36538;BME280;22545;48.892;9.138;2022-07-10T09:02:16;98799.97;;;19.75;75.24
36538;BME280;22545;48.892;9.138;2022-07-10T09:04:41;98801.88;;;19.44;78.34
36538;BME280;22545;48.892;9.138;2022-07-10T09:07:07;98796.94;;;19.39;79.95
36538;BME280;22545;48.892;9.138;2022-07-10T09:09:32;98789.41;;;19.20;78.53
36538;BME280;22545;48.892;9.138;2022-07-10T09:12:15;98800.47;;;19.38;78.91
36538;BME280;22545;48.892;9.138;2022-07-10T09:14:40;98795.81;;;19.58;76.93
36538;BME280;22545;48.892;9.138;2022-07-10T09:17:05;98794.81;;;20.42;72.70
36538;BME280;22545;48.892;9.138;2022-07-10T09:19:31;98788.41;;;19.64;67.33
36538;BME280;22545;48.892;9.138;2022-07-10T09:24:21;98790.59;;;21.18;56.49
36538;BME280;22545;48.892;9.138;2022-07-10T09:27:08;98802.44;;;22.93;54.43
36538;BME280;22545;48.892;9.138;2022-07-10T09:29:33;98802.31;;;22.84;49.29
36538;BME280;22545;48.892;9.138;2022-07-10T09:32:09;98802.28;;;21.26;53.58
36538;BME280;22545;48.892;9.138;2022-07-10T09:34:47;98800.31;;;21.16;57.60
36538;BME280;22545;48.892;9.138;2022-07-10T09:39:54;98804.22;;;21.11;62.10
36538;BME280;22545;48.892;9.138;2022-07-10T09:44:51;98804.31;;;20.96;65.06
36538;BME280;22545;48.892;9.138;2022-07-10T09:47:22;98804.41;;;21.83;54.90
36538;BME280;22545;48.892;9.138;2022-07-10T09:49:47;98792.84;;;23.28;49.76
36538;BME280;22545;48.892;9.138;2022-07-10T09:52:12;98793.91;;;22.56;49.25
36538;BME280;22545;48.892;9.138;2022-07-10T09:54:38;98809.34;;;22.23;52.42
36538;BME280;22545;48.892;9.138;2022-07-10T09:57:04;98804.63;;;22.28;52.81
36538;BME280;22545;48.892;9.138;2022-07-10T09:59:30;98802.69;;;22.43;52.70
36538;BME280;22545;48.892;9.138;2022-07-10T10:01:56;98803.44;;;21.84;57.16
36538;BME280;22545;48.892;9.138;2022-07-10T10:04:24;98807.50;;;21.64;59.20
36538;BME280;22545;48.892;9.138;2022-07-10T10:06:55;98796.09;;;21.65;54.89
36538;BME280;22545;48.892;9.138;2022-07-10T10:09:33;98795.19;;;21.28;59.07
36538;BME280;22545;48.892;9.138;2022-07-10T10:12:01;98790.63;;;20.93;66.05
36538;BME280;22545;48.892;9.138;2022-07-10T10:14:28;98796.06;;;20.49;64.35
36538;BME280;22545;48.892;9.138;2022-07-10T10:16:54;98793.91;;;19.89;71.61
36538;BME280;22545;48.892;9.138;2022-07-10T10:19:19;98796.69;;;20.53;66.04
36538;BME280;22545;48.892;9.138;2022-07-10T10:22:03;98789.38;;;21.98;59.89
36538;BME280;22545;48.892;9.138;2022-07-10T10:24:31;98789.19;;;22.84;57.18
36538;BME280;22545;48.892;9.138;2022-07-10T10:26:56;98786.47;;;22.96;52.49
36538;BME280;22545;48.892;9.138;2022-07-10T10:29:22;98790.88;;;22.38;52.27
36538;BME280;22545;48.892;9.138;2022-07-10T10:31:47;98781.09;;;22.40;51.76
36538;BME280;22545;48.892;9.138;2022-07-10T10:34:12;98786.72;;;21.50;57.68
36538;BME280;22545;48.892;9.138;2022-07-10T10:41:42;98786.47;;;19.54;73.16
36538;BME280;22545;48.892;9.138;2022-07-10T10:49:19;98782.94;;;22.02;59.24
36538;BME280;22545;48.892;9.138;2022-07-10T10:52:01;98773.56;;;22.82;51.84
36538;BME280;22545;48.892;9.138;2022-07-10T10:54:27;98778.13;;;22.91;53.38
36538;BME280;22545;48.892;9.138;2022-07-10T10:59:50;98773.38;;;21.90;54.41
36538;BME280;22545;48.892;9.138;2022-07-10T11:02:31;98773.63;;;21.50;59.78
36538;BME280;22545;48.892;9.138;2022-07-10T11:13:10;98777.94;;;20.86;65.39
36538;BME280;22545;48.892;9.138;2022-07-10T11:15:39;98775.94;;;20.77;60.02
36538;BME280;22545;48.892;9.138;2022-07-10T11:18:05;98772.41;;;20.78;59.14
36538;BME280;22545;48.892;9.138;2022-07-10T11:25:45;98762.84;;;20.39;62.51
36538;BME280;22545;48.892;9.138;2022-07-10T11:28:25;98770.34;;;20.03;65.76
36538;BME280;22545;48.892;9.138;2022-07-10T11:30:57;98768.66;;;20.02;61.19
36538;BME280;22545;48.892;9.138;2022-07-10T11:33:22;98766.97;;;20.28;59.61
36538;BME280;22545;48.892;9.138;2022-07-10T11:35:48;98758.59;;;20.23;60.52
36538;BME280;22545;48.892;9.138;2022-07-10T11:38:21;98757.19;;;20.45;57.51
36538;BME280;22545;48.892;9.138;2022-07-10T11:40:46;98761.75;;;20.41;54.82
36538;BME280;22545;48.892;9.138;2022-07-10T11:43:12;98760.22;;;20.51;52.89
36538;BME280;22545;48.892;9.138;2022-07-10T11:45:41;98762.63;;;20.55;55.38
36538;BME280;22545;48.892;9.138;2022-07-10T11:48:07;98760.94;;;20.28;55.13
36538;BME280;22545;48.892;9.138;2022-07-10T11:50:40;98749.78;;;20.51;55.92
36538;BME280;22545;48.892;9.138;2022-07-10T11:53:06;98762.97;;;20.63;59.54
36538;BME280;22545;48.892;9.138;2022-07-10T11:55:31;98757.25;;;20.96;56.75
36538;BME280;22545;48.892;9.138;2022-07-10T11:58:11;98756.78;;;20.64;52.65
36538;BME280;22545;48.892;9.138;2022-07-10T12:00:37;98758.91;;;21.10;62.07
36538;BME280;22545;48.892;9.138;2022-07-10T12:03:15;98759.72;;;21.24;55.31
36538;BME280;22545;48.892;9.138;2022-07-10T12:05:40;98757.75;;;20.63;51.13
36538;BME280;22545;48.892;9.138;2022-07-10T12:08:06;98754.84;;;20.67;54.31
36538;BME280;22545;48.892;9.138;2022-07-10T12:10:32;98758.50;;;20.78;53.56
36538;BME280;22545;48.892;9.138;2022-07-10T12:13:07;98749.88;;;20.37;52.50
36538;BME280;22545;48.892;9.138;2022-07-10T12:15:37;98756.09;;;20.22;53.59
36538;BME280;22545;48.892;9.138;2022-07-10T12:18:07;98757.56;;;20.13;52.46
36538;BME280;22545;48.892;9.138;2022-07-10T12:20:32;98754.38;;;20.08;54.41
36538;BME280;22545;48.892;9.138;2022-07-10T12:22:58;98755.69;;;19.88;53.78
36538;BME280;22545;48.892;9.138;2022-07-10T12:25:24;98758.38;;;20.13;54.13
36538;BME280;22545;48.892;9.138;2022-07-10T12:27:54;98757.66;;;20.11;52.98
36538;BME280;22545;48.892;9.138;2022-07-10T12:30:20;98756.03;;;20.36;54.46
36538;BME280;22545;48.892;9.138;2022-07-10T12:32:45;98755.41;;;20.45;52.13
36538;BME280;22545;48.892;9.138;2022-07-10T12:35:10;98759.25;;;20.40;50.65
36538;BME280;22545;48.892;9.138;2022-07-10T12:37:49;98757.81;;;20.48;51.81
36538;BME280;22545;48.892;9.138;2022-07-10T12:40:30;98750.59;;;20.39;51.45
36538;BME280;22545;48.892;9.138;2022-07-10T12:43:02;98750.19;;;19.22;55.02
36538;BME280;22545;48.892;9.138;2022-07-10T12:45:28;98766.38;;;19.41;57.57
36538;BME280;22545;48.892;9.138;2022-07-10T12:47:53;98763.41;;;19.75;60.67
36538;BME280;22545;48.892;9.138;2022-07-10T12:50:19;98761.97;;;20.25;61.97
36538;BME280;22545;48.892;9.138;2022-07-10T12:52:45;98770.53;;;20.27;58.81
36538;BME280;22545;48.892;9.138;2022-07-10T12:55:11;98765.34;;;20.53;55.10
36538;BME280;22545;48.892;9.138;2022-07-10T12:57:48;98756.09;;;20.75;52.20
36538;BME280;22545;48.892;9.138;2022-07-10T13:00:15;98759.09;;;20.56;51.96
36538;BME280;22545;48.892;9.138;2022-07-10T13:02:40;98754.59;;;20.45;54.09
36538;BME280;22545;48.892;9.138;2022-07-10T13:05:06;98750.78;;;19.96;53.08
36538;BME280;22545;48.892;9.138;2022-07-10T13:07:32;98750.97;;;19.80;52.55
36538;BME280;22545;48.892;9.138;2022-07-10T13:09:58;98756.22;;;19.51;55.49
36538;BME280;22545;48.892;9.138;2022-07-10T13:12:24;98757.00;;;19.10;57.71
36538;BME280;22545;48.892;9.138;2022-07-10T13:14:49;98756.84;;;18.99;60.31
36538;BME280;22545;48.892;9.138;2022-07-10T13:17:14;98754.13;;;19.00;60.25
36538;BME280;22545;48.892;9.138;2022-07-10T13:19:39;98758.31;;;19.17;59.78
36538;BME280;22545;48.892;9.138;2022-07-10T13:22:05;98756.25;;;19.37;58.75